createdAt,value
2022-09-18T00:00:15.061Z,100.00
2022-09-18T00:05:20.065Z,100.00
2022-09-18T00:10:23.580Z,100.00
2022-09-18T00:15:27.113Z,100.00
2022-09-18T00:20:32.045Z,100.00
2022-09-18T00:25:35.646Z,100.00
2022-09-18T00:30:39.251Z,100.00
2022-09-18T00:35:45.867Z,100.00
2022-09-18T00:40:49.408Z,100.00
2022-09-18T00:45:55.682Z,100.00
2022-09-18T00:51:01.194Z,100.00
2022-09-18T00:56:05.454Z,100.00
2022-09-18T01:01:09.739Z,100.00
2022-09-18T01:06:16.663Z,100.00
2022-09-18T01:11:32.508Z,100.00
2022-09-18T01:16:41.340Z,100.00
2022-09-18T01:21:52.076Z,100.00
2022-09-18T01:26:57.632Z,100.00
2022-09-18T01:32:06.254Z,100.00
2022-09-18T01:37:13.536Z,100.00
2022-09-18T01:42:19.520Z,100.00
2022-09-18T01:47:28.923Z,100.00
2022-09-18T01:52:34.889Z,100.00
2022-09-18T01:57:40.352Z,100.00
2022-09-18T02:02:47.557Z,100.00
2022-09-18T02:07:57.326Z,100.00
2022-09-18T02:13:02.806Z,100.00
2022-09-18T02:18:13.002Z,100.00
2022-09-18T02:23:17.985Z,100.00
2022-09-18T02:28:23.719Z,100.00
2022-09-18T02:33:29.782Z,100.00
2022-09-18T02:38:37.411Z,100.00
2022-09-18T02:43:46.242Z,100.00
2022-09-18T02:49:01.841Z,100.00
2022-09-18T02:54:09.127Z,100.00
2022-09-18T02:59:16.011Z,100.00
2022-09-18T03:04:26.906Z,100.00
2022-09-18T03:09:38.080Z,100.00
2022-09-18T03:14:41.718Z,100.00
2022-09-18T03:19:46.639Z,100.00
2022-09-18T03:24:50.271Z,100.00
2022-09-18T03:29:54.938Z,100.00
2022-09-18T03:35:02.384Z,100.00
2022-09-18T03:40:06.654Z,100.00
2022-09-18T03:45:10.773Z,100.00
2022-09-18T03:50:17.538Z,100.00
2022-09-18T03:55:21.244Z,100.00
2022-09-18T04:00:56.726Z,100.00
2022-09-18T04:06:11.171Z,100.00
2022-09-18T04:11:40.864Z,100.00
2022-09-18T04:16:44.865Z,100.00
2022-09-18T04:21:49.828Z,100.00
2022-09-18T04:26:53.394Z,100.00
2022-09-18T04:31:59.983Z,100.00
2022-09-18T04:37:08.161Z,100.00
2022-09-18T04:42:14.343Z,100.00
2022-09-18T04:47:18.036Z,100.00
2022-09-18T04:52:24.000Z,100.00
2022-09-18T04:57:27.748Z,100.00
2022-09-18T05:02:31.921Z,100.00
2022-09-18T05:07:36.880Z,100.00
2022-09-18T05:12:40.772Z,100.00
2022-09-18T05:17:44.729Z,100.00
2022-09-18T05:22:50.330Z,100.00
2022-09-18T05:27:59.081Z,100.00
2022-09-18T05:33:08.174Z,100.00
2022-09-18T05:38:16.450Z,100.00
2022-09-18T05:43:21.688Z,100.00
2022-09-18T05:48:26.683Z,100.00
2022-09-18T05:53:31.867Z,100.00
2022-09-18T05:59:01.488Z,100.00
2022-09-18T06:04:06.680Z,100.00
2022-09-18T06:09:43.791Z,100.00
2022-09-18T06:14:48.737Z,100.00
2022-09-18T06:19:53.398Z,100.00
2022-09-18T06:24:58.538Z,100.00
2022-09-18T06:30:09.427Z,100.00
2022-09-18T06:35:15.052Z,100.00
2022-09-18T06:40:20.816Z,100.00
2022-09-18T06:45:44.437Z,100.00
2022-09-18T06:50:52.298Z,100.00
2022-09-18T06:56:02.445Z,100.00
2022-09-18T07:01:09.987Z,100.00
2022-09-18T07:06:19.578Z,100.00
2022-09-18T07:11:26.983Z,100.00
2022-09-18T07:16:30.512Z,100.00
2022-09-18T07:21:34.529Z,100.00
2022-09-18T07:26:39.374Z,100.00
2022-09-18T07:31:45.466Z,100.00
2022-09-18T07:36:50.372Z,100.00
2022-09-18T07:41:55.743Z,100.00
2022-09-18T07:46:59.283Z,100.00
2022-09-18T07:52:03.445Z,100.00
2022-09-18T07:57:11.628Z,100.00
2022-09-18T08:02:29.667Z,100.00
2022-09-18T08:07:33.669Z,100.00
2022-09-18T08:12:58.856Z,100.00
2022-09-18T08:18:17.579Z,100.00
2022-09-18T08:23:41.517Z,100.00
2022-09-18T08:28:46.525Z,100.00
2022-09-18T08:33:50.172Z,100.00
2022-09-18T08:38:54.412Z,100.00
2022-09-18T08:44:13.001Z,100.00
2022-09-18T08:49:24.530Z,100.00
2022-09-18T08:54:40.415Z,100.00
2022-09-18T08:59:53.277Z,100.00
2022-09-18T09:04:59.544Z,100.00
2022-09-18T09:10:09.849Z,100.00
2022-09-18T09:15:25.767Z,89.65
2022-09-18T09:20:40.327Z,90.29
2022-09-18T09:25:50.000Z,90.97
2022-09-18T09:31:12.214Z,84.41
2022-09-18T09:36:35.226Z,71.79
2022-09-18T09:41:43.135Z,80.27
2022-09-18T09:47:01.420Z,63.22
2022-09-18T09:52:10.217Z,68.54
2022-09-18T09:57:20.926Z,67.03
2022-09-18T10:02:41.594Z,68.70
2022-09-18T10:07:50.580Z,72.88
2022-09-18T10:12:57.652Z,68.36
2022-09-18T10:18:05.871Z,71.61
2022-09-18T10:23:13.060Z,68.13
2022-09-18T10:28:17.032Z,68.38
2022-09-18T10:33:33.032Z,59.60
2022-09-18T10:38:39.838Z,60.96
2022-09-18T10:44:41.585Z,65.11
2022-09-18T10:49:56.687Z,65.42
2022-09-18T10:55:13.041Z,75.33
2022-09-18T11:00:38.850Z,77.28
2022-09-18T11:05:53.034Z,71.00
2022-09-18T11:11:00.823Z,63.64
2022-09-18T11:16:07.182Z,60.26
2022-09-18T11:21:12.175Z,64.61
2022-09-18T11:26:20.408Z,59.70
2022-09-18T11:31:24.786Z,59.13
2022-09-18T11:36:41.067Z,66.60
2022-09-18T11:41:45.306Z,60.61
2022-09-18T11:46:56.367Z,63.61
2022-09-18T11:52:04.778Z,61.23
2022-09-18T11:57:18.159Z,64.20
2022-09-18T12:02:27.082Z,64.19
2022-09-18T12:07:40.820Z,64.86
2022-09-18T12:12:48.821Z,64.49
2022-09-18T12:17:55.351Z,68.39
2022-09-18T12:23:01.186Z,60.51
2022-09-18T12:28:09.800Z,58.44
2022-09-18T12:33:20.469Z,59.09
2022-09-18T12:38:34.648Z,59.73
2022-09-18T12:43:55.361Z,60.31
2022-09-18T12:49:16.239Z,57.07
2022-09-18T12:54:30.735Z,60.18
2022-09-18T12:59:42.977Z,59.86
2022-09-18T13:04:48.836Z,64.03
2022-09-18T13:09:56.766Z,64.55
2022-09-18T13:15:03.067Z,63.73
2022-09-18T13:20:13.871Z,63.03
2022-09-18T13:25:25.557Z,65.04
2022-09-18T13:30:30.134Z,66.70
2022-09-18T13:35:35.356Z,64.97
2022-09-18T13:40:41.606Z,67.91
2022-09-18T13:45:45.516Z,70.13
2022-09-18T13:50:51.590Z,64.77
2022-09-18T13:55:56.489Z,70.39
2022-09-18T14:01:00.786Z,69.48
2022-09-18T14:06:22.728Z,70.01
2022-09-18T14:11:27.816Z,71.72
2022-09-18T14:16:34.506Z,69.40
2022-09-18T14:21:41.159Z,72.30
2022-09-18T14:26:56.657Z,73.54
2022-09-18T14:32:01.122Z,82.71
2022-09-18T14:37:21.254Z,86.91
2022-09-18T14:42:33.020Z,81.02
2022-09-18T14:47:36.980Z,82.18
2022-09-18T14:52:43.476Z,83.23
2022-09-18T14:57:50.346Z,91.15
2022-09-18T15:02:55.215Z,83.49
2022-09-18T15:08:01.683Z,90.56
2022-09-18T15:13:07.954Z,98.91
2022-09-18T15:18:21.155Z,100.00
2022-09-18T15:23:27.215Z,100.00
2022-09-18T15:28:33.511Z,100.00
2022-09-18T15:33:38.036Z,100.00
2022-09-18T15:38:44.141Z,100.00
2022-09-18T15:43:50.448Z,100.00
2022-09-18T15:48:56.825Z,100.00
2022-09-18T15:54:02.829Z,100.00
2022-09-18T15:59:08.736Z,100.00
2022-09-18T16:04:20.407Z,100.00
2022-09-18T16:09:26.268Z,100.00
2022-09-18T16:14:47.719Z,100.00
2022-09-18T16:19:51.234Z,100.00
2022-09-18T16:24:56.572Z,100.00
2022-09-18T16:30:01.428Z,100.00
2022-09-18T16:35:06.311Z,100.00
2022-09-18T16:40:18.520Z,100.00
2022-09-18T16:45:23.939Z,100.00
2022-09-18T16:50:27.435Z,100.00
2022-09-18T16:55:31.588Z,100.00
2022-09-18T17:00:37.753Z,100.00
2022-09-18T17:05:41.570Z,100.00
2022-09-18T17:10:45.465Z,100.00
2022-09-18T17:15:50.477Z,100.00
2022-09-18T17:20:54.036Z,100.00
2022-09-18T17:26:03.625Z,100.00
2022-09-18T17:31:12.472Z,100.00
2022-09-18T17:36:18.159Z,100.00
2022-09-18T17:41:21.839Z,100.00
2022-09-18T17:46:27.148Z,100.00
2022-09-18T17:51:30.752Z,100.00
2022-09-18T17:56:34.608Z,100.00
2022-09-18T18:01:42.030Z,100.00
2022-09-18T18:06:47.651Z,100.00
2022-09-18T18:11:51.135Z,100.00
2022-09-18T18:16:56.035Z,100.00
2022-09-18T18:21:59.491Z,100.00
2022-09-18T18:27:04.494Z,100.00
2022-09-18T18:32:11.046Z,100.00
2022-09-18T18:37:14.661Z,100.00
2022-09-18T18:42:18.184Z,100.00
2022-09-18T18:47:23.386Z,100.00
2022-09-18T18:52:27.058Z,100.00
2022-09-18T18:57:31.473Z,100.00
2022-09-18T19:02:36.479Z,100.00
2022-09-18T19:07:40.044Z,100.00
2022-09-18T19:12:43.549Z,100.00
2022-09-18T19:17:51.937Z,100.00
2022-09-18T19:22:56.837Z,100.00
2022-09-18T19:28:00.448Z,100.00
2022-09-18T19:33:05.357Z,100.00
2022-09-18T19:38:09.050Z,100.00
2022-09-18T19:43:14.250Z,100.00
2022-09-18T19:48:22.021Z,100.00
2022-09-18T19:53:27.324Z,100.00
2022-09-18T19:58:32.678Z,100.00
2022-09-18T20:03:38.436Z,100.00
2022-09-18T20:08:41.929Z,100.00
2022-09-18T20:13:49.626Z,100.00
2022-09-18T20:18:54.695Z,100.00
2022-09-18T20:23:58.653Z,100.00
2022-09-18T20:29:03.132Z,100.00
2022-09-18T20:34:08.221Z,100.00
2022-09-18T20:39:11.694Z,100.00
2022-09-18T20:44:15.551Z,100.00
2022-09-18T20:49:20.499Z,100.00
2022-09-18T20:54:24.013Z,100.00
2022-09-18T20:59:27.533Z,100.00
2022-09-18T21:04:32.480Z,100.00
2022-09-18T21:09:36.069Z,100.00
2022-09-18T21:14:40.093Z,100.00
2022-09-18T21:19:48.592Z,100.00
2022-09-18T21:24:53.926Z,100.00
2022-09-18T21:29:57.899Z,100.00
2022-09-18T21:35:03.942Z,100.00
2022-09-18T21:40:08.009Z,100.00
2022-09-18T21:45:20.267Z,100.00
2022-09-18T21:50:25.333Z,100.00
2022-09-18T21:55:28.887Z,100.00
2022-09-18T22:00:32.541Z,100.00
2022-09-18T22:05:37.720Z,100.00
2022-09-18T22:10:41.224Z,100.00
2022-09-18T22:15:44.783Z,100.00
2022-09-18T22:20:49.685Z,100.00
2022-09-18T22:25:53.661Z,100.00
2022-09-18T22:30:57.218Z,100.00
2022-09-18T22:36:04.796Z,100.00
2022-09-18T22:41:09.165Z,100.00
2022-09-18T22:46:14.031Z,100.00
2022-09-18T22:51:19.718Z,100.00
2022-09-18T22:56:23.765Z,100.00
2022-09-18T23:01:29.045Z,100.00
2022-09-18T23:06:34.491Z,100.00
2022-09-18T23:11:38.004Z,100.00
2022-09-18T23:16:41.543Z,100.00
2022-09-18T23:21:46.625Z,100.00
2022-09-18T23:26:51.082Z,100.00
2022-09-18T23:31:57.089Z,100.00
2022-09-18T23:37:02.212Z,100.00
2022-09-18T23:42:06.362Z,100.00
2022-09-18T23:47:09.880Z,100.00
2022-09-18T23:52:14.736Z,100.00
2022-09-18T23:57:18.211Z,100.00
